• Join FlightAware (Why Join?)
  • Login
  • US Flag 
05:39AM EST


 

Airport Tracker/Info


-or-


 

Live Flight TrackerFlight Track Log ✈ N789EX ✈ 10-Nov-2013 ✈ KBFI - KMWH

Flight Track Log - Related Links

Times and Time Zones

All times are in EST time to prevent confusion due to time zone crossing. See the N789EX flight status page for this flight to view local times or setup timezone preferences in your user account.

Time Position Orientation Groundspeed Altitude Reporting Facility
EST Latitude Longitude Course Direction KTS MPH feet Rate Location/Type
01:50PM 47.5920 -122.3540 330° Northwest 240 276 2,100  Level FlightAware
01:51PM 47.6270 -122.4070 314° West 255 293 4,100 2,880 Climbing FlightAware
01:51PM 47.6450 -122.4530 300° West 260 299 5,600 2,940 Climbing FlightAware
01:52PM 47.6880 -122.4750 341° North 285 328 7,400 2,700 Climbing FlightAware
01:52PM 47.7220 -122.4720 North 288 331 8,400 1,860 Climbing FlightAware
01:53PM 47.7490 -122.4620 14° North 298 343 8,800 720 Climbing FlightAware
01:53PM 47.7840 -122.4260 35° Northeast 310 357 9,000 1,260 Climbing FlightAware
01:54PM 47.8270 -122.3790 36° Northeast 324 373 10,300 1,440 Climbing FlightAware
01:55PM 47.9050 -122.2940 36° Northeast 388 447 11,300 1,200 Climbing FlightAware
01:55PM 47.9540 -122.2530 29° Northeast 408 470 12,000 1,980 Climbing FlightAware
01:56PM 48.0640 -122.1730 26° Northeast 426 490 14,500 2,100 Climbing FlightAware
01:57PM 48.1210 -122.0640 52° Northeast 461 531 15,900 1,920 Climbing FlightAware
01:58PM 48.1210 -121.9500 90° East 467 537 17,100 1,920 Climbing FlightAware
01:58PM 48.1160 -121.8460 94° East 471 542 18,200 1,920 Climbing FlightAware
01:59PM 48.1060 -121.6390 94° East 484 557 20,200 1,920 Climbing FlightAware
02:00PM 48.1000 -121.5240 94° East 485 558 21,400 1,620 Climbing FlightAware
02:00PM 48.0950 -121.4250 94° East 481 554 22,000 480 Climbing FlightAware
02:01PM 48.0880 -121.2910 94° East 493 567 22,000  Level FlightAware
02:02PM 48.0810 -121.1460 94° East 508 585 22,000  Level FlightAware
02:02PM 48.0750 -121.0350 95° East 509 586 22,000  Level FlightAware
02:03PM 48.0640 -120.8450 95° East 525 604 22,000  Level FlightAware
02:04PM 48.0590 -120.7440 94° East 525 604 22,000  Level FlightAware
02:04PM 48.0500 -120.6000 95° East 543 625 22,000  Level FlightAware
02:05PM 48.0420 -120.4430 94° East 544 626 22,000  Level FlightAware
02:05PM 48.0360 -120.3230 94° East 547 629 22,000  Level FlightAware
02:06PM 48.0270 -120.1610 95° East 549 632 22,000  Level FlightAware
02:07PM 48.0200 -120.0030 94° East 549 632 22,000  Level FlightAware
02:08PM 48.0150 -119.8880 94° East 549 632 22,000  Level FlightAware
02:08PM 48.0090 -119.7720 94° East 549 632 22,000  Level FlightAware
02:09PM 48.0000 -119.5820 94° East 549 632 22,000  Level FlightAware
02:10PM 47.9950 -119.4630 94° East 549 632 22,000  Level FlightAware
02:10PM 47.9930 -119.4210 94° East 549 632 22,000  Level FlightAware
02:11PM 48.0183 -119.1136 94° East 545 627 22,000 -60 Level Seattle Center
02:12PM 47.9947 -118.8961 99° East 534 615 21,900  Descending Seattle Center
02:13PM 47.9597 -118.6811 104° East 534 615 22,000  Climbing Seattle Center
02:14PM 47.9158 -118.4664 107° East 541 623 21,900 -60 Descending Seattle Center
02:15PM 47.8764 -118.2508 105° East 541 623 21,900  Level Seattle Center
02:16PM 47.8542 -118.0406 99° East 518 596 22,000 480 Climbing Seattle Center
02:17PM 47.8339 -117.8258 98° East 524 603 22,900 480 Climbing Seattle Center
02:18PM 47.8233 -117.5581 93° East 540 621 23,000  Climbing Seattle Center
02:19PM 47.8117 -117.3364 94° East 537 618 23,000  Level Seattle Center
02:20PM 47.7931 -117.1097 97° East 541 623 23,000 -60 Level Seattle Center
02:21PM 47.7781 -116.8767 95° East 552 635 22,900 -60 Descending Seattle Center
02:22PM 47.7692 -116.6444 93° East 556 640 22,900 -60 Level Seattle Center
02:23PM 47.7706 -116.4153 89° East 555 639 22,800 -60 Descending Seattle Center
02:24PM 47.7156 -116.2094 112° Southeast 556 640 22,800  Level Seattle Center
02:25PM 47.5853 -116.1617 166° South 517 595 22,900  Climbing Seattle Center
02:26PM 47.5103 -116.2947 230° Southwest 476 548 22,800 -60 Descending Seattle Center
02:27PM 47.5383 -116.4678 284° West 445 512 22,800  Level Seattle Center
02:28PM 47.5825 -116.6367 291° West 443 510 22,800 -60 Level Seattle Center
02:29PM 47.6267 -116.8036 291° West 441 507 22,700 -120 Descending Seattle Center
02:30PM 47.6656 -116.9736 289° West 442 509 22,600 -60 Descending Seattle Center
02:31PM 47.7086 -117.1386 291° West 444 511 22,600 120 Level Seattle Center
02:32PM 47.7594 -117.3417 290° West 448 516 22,900 120 Climbing Seattle Center
02:33PM 47.7833 -117.5161 282° West 437 503 22,900 -60 Level Seattle Center
02:34PM 47.7394 -117.6786 248° West 436 502 22,800 -60 Descending Seattle Center
02:35PM 47.6767 -117.8342 239° Southwest 441 507 22,800 -60 Level Seattle Center
02:36PM 47.6003 -117.9764 231° Southwest 446 513 22,700  Descending Seattle Center
02:37PM 47.4797 -118.0422 200° South 479 551 22,800  Climbing Seattle Center
02:43PM 46.7460 -118.3020 200° South 479 551 23,000  Climbing FlightAware
02:43PM 46.6730 -118.3210 190° South 482 555 23,000  Level FlightAware
02:44PM 46.5380 -118.3560 190° South 480 552 23,000  Level FlightAware
02:45PM 46.4670 -118.3460 174° South 507 583 23,000  Level FlightAware
02:45PM 46.4090 -118.2740 139° Southeast 530 610 23,000  Level FlightAware
02:47PM 46.3290 -118.1200 127° Southeast 530 610 23,000  Level FlightAware
02:47PM 46.2840 -118.0330 127° Southeast 530 610 23,000  Level FlightAware
02:48PM 46.1950 -117.8490 125° Southeast 525 604 23,000  Level FlightAware
02:48PM 46.1590 -117.7780 126° Southeast 525 604 23,000  Level FlightAware
02:49PM 46.0720 -117.6060 126° Southeast 526 605 23,000  Level FlightAware
02:50PM 46.0050 -117.4740 126° Southeast 528 608 23,000  Level FlightAware
02:51PM 45.9550 -117.3670 124° Southeast 530 610 23,000  Level FlightAware
02:51PM 45.9130 -117.2740 123° Southeast 530 610 23,000  Level FlightAware
02:52PM 45.8740 -117.1880 123° Southeast 530 610 23,000  Level FlightAware
02:53PM 45.8340 -117.0980 123° Southeast 530 610 23,000  Level FlightAware
02:53PM 45.7920 -117.0050 123° Southeast 530 610 23,000  Level FlightAware
02:54PM 45.7630 -116.9420 123° Southeast 530 610 23,000  Level FlightAware
02:54PM 45.7220 -116.8520 123° Southeast 530 610 23,000 -60 Level FlightAware
02:59PM 46.1030 -117.4140 314° West 440 506 22,900 -60 Descending FlightAware
03:01PM 46.1400 -117.5970 286° West 362 417 22,900  Level FlightAware
03:01PM 46.1550 -117.6680 287° West 327 376 23,000 60 Climbing FlightAware
03:02PM 46.1790 -117.7610 290° West 360 414 23,000  Level FlightAware
03:02PM 46.2080 -117.8390 298° West 396 456 23,000  Level FlightAware
03:03PM 46.2370 -117.9170 298° West 425 489 23,000  Level FlightAware
03:04PM 46.2800 -118.0310 299° West 453 521 23,000  Level FlightAware
03:04PM 46.3130 -118.1210 298° West 452 520 23,000 60 Level FlightAware
03:05PM 46.3510 -118.2230 298° West 459 528 23,100  Climbing FlightAware
03:06PM 46.3850 -118.3230 296° West 461 531 23,000 -60 Descending FlightAware
03:07PM 46.4400 -118.5010 294° West 394 453 23,000  Level FlightAware
03:07PM 46.4580 -118.5710 290° West 411 473 23,000 -120 Level FlightAware
03:08PM 46.4980 -118.7260 291° West 352 405 22,900  Descending FlightAware
03:09PM 46.5220 -118.8160 291° West 364 419 23,000 60 Climbing FlightAware
03:10PM 46.5540 -118.9180 295° West 408 470 23,000  Level FlightAware
03:10PM 46.5840 -118.9910 301° West 434 499 23,000  Level FlightAware
03:11PM 46.6110 -119.0580 300° West 453 521 23,000  Level FlightAware
03:12PM 46.6810 -119.2480 298° West 460 529 23,000 -60 Level FlightAware
03:13PM 46.7400 -119.4290 295° West 456 525 22,900 -120 Descending FlightAware
03:13PM 46.7730 -119.5330 295° West 455 524 22,800 60 Descending FlightAware
03:14PM 46.8310 -119.6970 297° West 459 528 23,000 60 Climbing FlightAware
03:15PM 46.8760 -119.7590 317° Northwest 483 556 22,900 -120 Descending FlightAware
03:15PM 46.9220 -119.7730 348° North 506 582 22,900  Level FlightAware
03:16PM 47.0290 -119.6510 38° Northeast 542 624 22,900  Level FlightAware
03:16PM 47.0350 -119.5890 82° East 540 621 22,900 -120 Level FlightAware
03:17PM 47.0090 -119.4730 108° East 524 603 22,800  Descending FlightAware
03:18PM 46.9660 -119.3960 129° Southeast 522 601 22,900 300 Climbing FlightAware
03:18PM 46.9220 -119.3170 129° Southeast 524 603 23,100 60 Climbing FlightAware
03:19PM 46.8680 -119.2140 127° Southeast 530 610 23,000 -300 Descending FlightAware
03:19PM 46.8060 -119.0910 126° Southeast 518 596 22,700 -240 Descending FlightAware
03:20PM 46.7550 -118.9850 125° Southeast 470 541 22,700 60 Level FlightAware
03:21PM 46.7170 -118.8990 123° Southeast 425 489 22,800 -180 Climbing FlightAware
03:21PM 46.6770 -118.8120 124° Southeast 393 452 22,500 -840 Descending FlightAware
03:22PM 46.6450 -118.7440 124° Southeast 383 441 21,900 -1,560 Descending FlightAware
03:22PM 46.6110 -118.6750 126° Southeast 384 442 20,800 -1,860 Descending FlightAware
03:23PM 46.5780 -118.6150 129° Southeast 387 445 20,000 -840 Descending FlightAware
03:23PM 46.5450 -118.5530 128° Southeast 388 447 20,000 -660 Level FlightAware
03:24PM 46.5330 -118.4920 106° East 397 457 19,400 -1,680 Descending FlightAware
03:25PM 46.5890 -118.4020 48° Northeast 358 412 17,900 -1,800 Descending FlightAware
03:25PM 46.5930 -118.4010 10° North 356 410 17,800 -120 Descending FlightAware
03:25PM 46.6670 -118.3920 North 356 410 17,800  Level FlightAware
03:26PM 46.7170 -118.3850 North 356 410 17,800  Level FlightAware
03:27PM 46.8190 -118.3720 North 356 410 17,800  Level FlightAware
03:28PM 46.8660 -118.3660 North 356 410 17,800  Level FlightAware
03:28PM 46.9170 -118.3600 North 356 410 17,800 -5,760 Level FlightAware
03:29PM 46.8789 -118.6994 North 267 307 10,900 -4,860 Descending Seattle Center
03:30PM 46.9033 -118.7847 293° West 231 266 10,000 -1,140 Descending Seattle Center
03:31PM 46.9228 -118.8708 288° West 224 258 8,700 -1,500 Descending Seattle Center
03:32PM 46.9439 -118.9586 289° West 227 261 7,000 -1,500 Descending Seattle Center
03:33PM 46.9658 -119.0494 290° West 234 269 5,700 -1,380 Descending Seattle Center
03:34PM 46.9875 -119.1403 289° West 233 268 4,300 -1,440 Descending Seattle Center
03:35PM 47.0236 -119.2386 298° West 242 278 2,900 -660 Descending Seattle Center
03:36PM 47.0764 -119.2561 347° North 202 232 3,000 -300 Climbing Seattle Center
03:37PM 47.1317 -119.2822 342° North 195 224 2,400 -780 Descending Seattle Center
03:38PM 47.1744 -119.3028 342° North 169 194 1,500 -600 Descending Seattle Center
03:39PM 47.2081 -119.3192 342° North 159 183 1,200 -300 Descending Seattle Center
03:41PM 47.2086 -119.3191 306° West  Level Estimated